sensor_id;sensor_type;location;lat;lon;timestamp;pressure;altitude;pressure_sealevel;temperature;humidity
31761;BME280;18335;51.486;7.562;2023-02-18T00:01:58;100729.78;;;10.35;100.00
31761;BME280;18335;51.486;7.562;2023-02-18T00:04:25;100725.75;;;10.39;100.00
31761;BME280;18335;51.486;7.562;2023-02-18T00:06:53;100721.41;;;10.36;100.00
31761;BME280;18335;51.486;7.562;2023-02-18T00:09:20;100723.31;;;10.36;100.00
31761;BME280;18335;51.486;7.562;2023-02-18T00:11:46;100729.59;;;10.36;100.00
31761;BME280;18335;51.486;7.562;2023-02-18T00:14:14;100724.78;;;10.30;100.00
31761;BME280;18335;51.486;7.562;2023-02-18T00:16:42;100732.09;;;10.30;100.00
31761;BME280;18335;51.486;7.562;2023-02-18T00:19:11;100730.97;;;10.23;100.00
31761;BME280;18335;51.486;7.562;2023-02-18T00:21:38;100730.38;;;10.29;100.00
31761;BME280;18335;51.486;7.562;2023-02-18T00:24:07;100717.69;;;10.37;100.00
31761;BME280;18335;51.486;7.562;2023-02-18T00:26:34;100728.84;;;10.44;100.00
31761;BME280;18335;51.486;7.562;2023-02-18T00:29:02;100732.19;;;10.38;100.00
31761;BME280;18335;51.486;7.562;2023-02-18T00:31:31;100730.06;;;10.32;100.00
31761;BME280;18335;51.486;7.562;2023-02-18T00:34:01;100729.78;;;10.35;100.00
31761;BME280;18335;51.486;7.562;2023-02-18T00:36:28;100724.88;;;10.38;100.00
31761;BME280;18335;51.486;7.562;2023-02-18T00:38:57;100731.50;;;10.36;100.00
31761;BME280;18335;51.486;7.562;2023-02-18T00:41:27;100720.59;;;10.36;100.00
31761;BME280;18335;51.486;7.562;2023-02-18T00:43:54;100717.56;;;10.39;100.00
31761;BME280;18335;51.486;7.562;2023-02-18T00:46:21;100705.31;;;10.43;100.00
31761;BME280;18335;51.486;7.562;2023-02-18T00:48:48;100691.88;;;10.32;100.00
31761;BME280;18335;51.486;7.562;2023-02-18T00:51:15;100693.84;;;10.39;100.00
31761;BME280;18335;51.486;7.562;2023-02-18T00:53:42;100695.56;;;10.40;100.00
31761;BME280;18335;51.486;7.562;2023-02-18T00:56:09;100687.38;;;10.40;100.00
31761;BME280;18335;51.486;7.562;2023-02-18T00:58:38;100690.97;;;10.41;100.00
31761;BME280;18335;51.486;7.562;2023-02-18T01:01:06;100698.69;;;10.45;100.00
31761;BME280;18335;51.486;7.562;2023-02-18T01:03:34;100694.88;;;10.56;100.00
31761;BME280;18335;51.486;7.562;2023-02-18T01:06:01;100693.03;;;10.57;100.00
31761;BME280;18335;51.486;7.562;2023-02-18T01:08:28;100682.56;;;10.52;100.00
31761;BME280;18335;51.486;7.562;2023-02-18T01:10:57;100689.19;;;10.49;100.00
31761;BME280;18335;51.486;7.562;2023-02-18T01:13:25;100685.41;;;10.60;100.00
31761;BME280;18335;51.486;7.562;2023-02-18T01:15:53;100679.94;;;10.60;100.00
31761;BME280;18335;51.486;7.562;2023-02-18T01:18:21;100689.44;;;10.56;100.00
31761;BME280;18335;51.486;7.562;2023-02-18T01:20:47;100689.13;;;10.59;100.00
31761;BME280;18335;51.486;7.562;2023-02-18T01:23:14;100684.28;;;10.53;100.00
31761;BME280;18335;51.486;7.562;2023-02-18T01:25:41;100692.84;;;10.58;100.00
31761;BME280;18335;51.486;7.562;2023-02-18T01:28:10;100693.78;;;10.49;100.00
31761;BME280;18335;51.486;7.562;2023-02-18T01:30:37;100682.16;;;10.47;100.00
31761;BME280;18335;51.486;7.562;2023-02-18T01:33:06;100681.38;;;10.37;100.00
31761;BME280;18335;51.486;7.562;2023-02-18T01:35:33;100683.22;;;10.36;100.00
31761;BME280;18335;51.486;7.562;2023-02-18T01:38:02;100685.25;;;10.34;100.00
31761;BME280;18335;51.486;7.562;2023-02-18T01:40:30;100692.28;;;10.37;100.00
31761;BME280;18335;51.486;7.562;2023-02-18T01:42:58;100682.84;;;10.31;100.00
31761;BME280;18335;51.486;7.562;2023-02-18T01:45:54;100677.63;;;10.38;100.00
31761;BME280;18335;51.486;7.562;2023-02-18T01:48:26;100668.84;;;10.44;100.00
31761;BME280;18335;51.486;7.562;2023-02-18T01:50:59;100669.09;;;10.50;100.00
31761;BME280;18335;51.486;7.562;2023-02-18T01:53:32;100668.16;;;10.42;100.00
31761;BME280;18335;51.486;7.562;2023-02-18T01:56:02;100673.66;;;10.32;100.00
31761;BME280;18335;51.486;7.562;2023-02-18T01:58:31;100667.91;;;10.35;100.00
31761;BME280;18335;51.486;7.562;2023-02-18T02:00:58;100672.66;;;10.33;100.00
31761;BME280;18335;51.486;7.562;2023-02-18T02:03:27;100669.47;;;10.38;100.00
31761;BME280;18335;51.486;7.562;2023-02-18T02:05:53;100668.03;;;10.34;100.00
31761;BME280;18335;51.486;7.562;2023-02-18T02:08:20;100667.34;;;10.32;100.00
31761;BME280;18335;51.486;7.562;2023-02-18T02:11:02;100660.56;;;10.36;100.00
31761;BME280;18335;51.486;7.562;2023-02-18T02:13:43;100671.28;;;10.20;100.00
31761;BME280;18335;51.486;7.562;2023-02-18T02:16:18;100665.53;;;10.23;100.00
31761;BME280;18335;51.486;7.562;2023-02-18T02:18:59;100666.16;;;10.34;100.00
31761;BME280;18335;51.486;7.562;2023-02-18T02:21:57;100663.81;;;10.22;100.00
31761;BME280;18335;51.486;7.562;2023-02-18T02:24:56;100656.34;;;10.24;100.00
31761;BME280;18335;51.486;7.562;2023-02-18T02:27:37;100651.97;;;10.31;100.00
31761;BME280;18335;51.486;7.562;2023-02-18T02:30:39;100663.50;;;10.25;100.00
31761;BME280;18335;51.486;7.562;2023-02-18T02:33:23;100651.75;;;10.24;100.00
31761;BME280;18335;51.486;7.562;2023-02-18T02:35:59;100640.16;;;10.40;100.00
31761;BME280;18335;51.486;7.562;2023-02-18T02:38:33;100640.75;;;10.34;100.00
31761;BME280;18335;51.486;7.562;2023-02-18T02:41:14;100645.03;;;10.36;100.00
31761;BME280;18335;51.486;7.562;2023-02-18T02:43:50;100621.66;;;10.34;100.00
31761;BME280;18335;51.486;7.562;2023-02-18T02:46:22;100620.72;;;10.25;100.00
31761;BME280;18335;51.486;7.562;2023-02-18T02:48:57;100626.13;;;10.35;100.00
31761;BME280;18335;51.486;7.562;2023-02-18T02:51:31;100626.28;;;10.33;100.00
31761;BME280;18335;51.486;7.562;2023-02-18T02:54:10;100629.16;;;10.32;100.00
31761;BME280;18335;51.486;7.562;2023-02-18T02:56:37;100618.31;;;10.40;100.00
31761;BME280;18335;51.486;7.562;2023-02-18T02:59:09;100616.63;;;10.39;100.00
31761;BME280;18335;51.486;7.562;2023-02-18T03:01:49;100614.59;;;10.41;100.00
31761;BME280;18335;51.486;7.562;2023-02-18T03:04:33;100605.53;;;10.40;100.00
31761;BME280;18335;51.486;7.562;2023-02-18T03:07:33;100600.78;;;10.42;100.00
31761;BME280;18335;51.486;7.562;2023-02-18T03:10:15;100595.13;;;10.36;100.00
31761;BME280;18335;51.486;7.562;2023-02-18T03:12:48;100597.22;;;10.42;100.00
31761;BME280;18335;51.486;7.562;2023-02-18T03:15:22;100587.00;;;10.44;100.00
31761;BME280;18335;51.486;7.562;2023-02-18T03:17:54;100578.25;;;10.40;100.00
31761;BME280;18335;51.486;7.562;2023-02-18T03:20:26;100569.09;;;10.41;100.00
31761;BME280;18335;51.486;7.562;2023-02-18T03:22:59;100561.50;;;10.53;100.00
31761;BME280;18335;51.486;7.562;2023-02-18T03:25:30;100574.78;;;10.48;100.00
31761;BME280;18335;51.486;7.562;2023-02-18T03:28:00;100565.88;;;10.46;100.00
31761;BME280;18335;51.486;7.562;2023-02-18T03:30:31;100562.69;;;10.50;100.00
31761;BME280;18335;51.486;7.562;2023-02-18T03:33:03;100554.88;;;10.38;100.00
31761;BME280;18335;51.486;7.562;2023-02-18T03:35:31;100550.03;;;10.49;100.00
31761;BME280;18335;51.486;7.562;2023-02-18T03:38:05;100542.66;;;10.42;100.00
31761;BME280;18335;51.486;7.562;2023-02-18T03:40:35;100549.66;;;10.44;100.00
31761;BME280;18335;51.486;7.562;2023-02-18T03:43:02;100539.75;;;10.43;100.00
31761;BME280;18335;51.486;7.562;2023-02-18T03:45:29;100538.13;;;10.50;100.00
31761;BME280;18335;51.486;7.562;2023-02-18T03:47:56;100541.63;;;10.43;100.00
31761;BME280;18335;51.486;7.562;2023-02-18T03:50:23;100536.03;;;10.44;100.00
31761;BME280;18335;51.486;7.562;2023-02-18T03:52:50;100541.75;;;10.33;100.00
31761;BME280;18335;51.486;7.562;2023-02-18T03:55:18;100537.22;;;10.42;100.00
31761;BME280;18335;51.486;7.562;2023-02-18T03:57:44;100528.56;;;10.29;100.00
31761;BME280;18335;51.486;7.562;2023-02-18T04:00:12;100524.88;;;10.38;100.00
31761;BME280;18335;51.486;7.562;2023-02-18T04:02:39;100527.63;;;10.38;100.00
31761;BME280;18335;51.486;7.562;2023-02-18T04:05:07;100516.38;;;10.41;100.00
31761;BME280;18335;51.486;7.562;2023-02-18T04:07:34;100518.81;;;10.44;100.00
31761;BME280;18335;51.486;7.562;2023-02-18T04:10:00;100508.34;;;10.39;100.00
31761;BME280;18335;51.486;7.562;2023-02-18T04:12:28;100500.97;;;10.32;100.00
31761;BME280;18335;51.486;7.562;2023-02-18T04:14:55;100498.22;;;10.49;100.00
31761;BME280;18335;51.486;7.562;2023-02-18T04:17:22;100497.28;;;10.41;100.00
31761;BME280;18335;51.486;7.562;2023-02-18T04:19:48;100500.16;;;10.39;100.00
31761;BME280;18335;51.486;7.562;2023-02-18T04:22:15;100494.25;;;10.44;100.00
31761;BME280;18335;51.486;7.562;2023-02-18T04:24:42;100494.25;;;10.44;100.00
31761;BME280;18335;51.486;7.562;2023-02-18T04:27:09;100490.53;;;10.45;100.00
31761;BME280;18335;51.486;7.562;2023-02-18T04:29:37;100493.88;;;10.39;100.00
31761;BME280;18335;51.486;7.562;2023-02-18T04:32:04;100498.94;;;10.34;100.00
31761;BME280;18335;51.486;7.562;2023-02-18T04:34:30;100493.78;;;10.31;100.00
31761;BME280;18335;51.486;7.562;2023-02-18T04:36:57;100480.88;;;10.33;100.00
31761;BME280;18335;51.486;7.562;2023-02-18T04:39:24;100485.16;;;10.35;100.00
31761;BME280;18335;51.486;7.562;2023-02-18T04:41:51;100478.66;;;10.36;100.00
31761;BME280;18335;51.486;7.562;2023-02-18T04:44:18;100472.06;;;10.39;100.00
31761;BME280;18335;51.486;7.562;2023-02-18T04:46:46;100466.50;;;10.31;100.00
31761;BME280;18335;51.486;7.562;2023-02-18T04:49:12;100468.28;;;10.40;100.00
31761;BME280;18335;51.486;7.562;2023-02-18T04:51:39;100454.66;;;10.40;100.00
31761;BME280;18335;51.486;7.562;2023-02-18T04:54:06;100453.28;;;10.36;100.00
31761;BME280;18335;51.486;7.562;2023-02-18T04:56:33;100449.19;;;10.40;100.00
31761;BME280;18335;51.486;7.562;2023-02-18T04:58:59;100450.56;;;10.36;100.00
31761;BME280;18335;51.486;7.562;2023-02-18T05:01:26;100441.72;;;10.42;100.00
31761;BME280;18335;51.486;7.562;2023-02-18T05:03:54;100443.44;;;10.43;100.00
31761;BME280;18335;51.486;7.562;2023-02-18T05:06:21;100439.66;;;10.36;100.00
31761;BME280;18335;51.486;7.562;2023-02-18T05:08:47;100436.59;;;10.39;100.00
31761;BME280;18335;51.486;7.562;2023-02-18T05:11:14;100435.19;;;10.35;100.00
31761;BME280;18335;51.486;7.562;2023-02-18T05:13:41;100433.78;;;10.31;100.00
31761;BME280;18335;51.486;7.562;2023-02-18T05:16:08;100430.09;;;10.40;100.00
31761;BME280;18335;51.486;7.562;2023-02-18T05:18:35;100439.25;;;10.31;100.00
31761;BME280;18335;51.486;7.562;2023-02-18T05:21:03;100439.38;;;10.21;100.00
31761;BME280;18335;51.486;7.562;2023-02-18T05:23:30;100421.81;;;10.24;100.00
31761;BME280;18335;51.486;7.562;2023-02-18T05:25:56;100421.81;;;10.24;100.00
31761;BME280;18335;51.486;7.562;2023-02-18T05:28:24;100428.28;;;10.23;100.00
31761;BME280;18335;51.486;7.562;2023-02-18T05:30:51;100418.91;;;10.25;100.00
31761;BME280;18335;51.486;7.562;2023-02-18T05:33:18;100415.72;;;10.30;100.00
31761;BME280;18335;51.486;7.562;2023-02-18T05:35:45;100417.28;;;10.32;100.00
31761;BME280;18335;51.486;7.562;2023-02-18T05:38:13;100414.66;;;10.23;100.00
31761;BME280;18335;51.486;7.562;2023-02-18T05:40:40;100414.66;;;10.23;100.00
31761;BME280;18335;51.486;7.562;2023-02-18T05:43:07;100407.78;;;10.19;100.00
31761;BME280;18335;51.486;7.562;2023-02-18T05:45:33;100401.50;;;10.18;100.00
31761;BME280;18335;51.486;7.562;2023-02-18T05:48:00;100395.88;;;10.20;100.00
31761;BME280;18335;51.486;7.562;2023-02-18T05:50:27;100381.69;;;10.16;100.00
31761;BME280;18335;51.486;7.562;2023-02-18T05:52:54;100374.31;;;10.09;100.00
31761;BME280;18335;51.486;7.562;2023-02-18T05:55:22;100374.44;;;10.07;100.00
31761;BME280;18335;51.486;7.562;2023-02-18T05:57:49;100367.66;;;10.11;100.00
31761;BME280;18335;51.486;7.562;2023-02-18T06:00:17;100379.16;;;10.15;100.00
31761;BME280;18335;51.486;7.562;2023-02-18T06:02:44;100357.53;;;10.03;100.00
31761;BME280;18335;51.486;7.562;2023-02-18T06:05:11;100362.78;;;10.15;100.00
31761;BME280;18335;51.486;7.562;2023-02-18T06:07:37;100363.94;;;10.12;100.00
31761;BME280;18335;51.486;7.562;2023-02-18T06:10:05;100368.13;;;10.07;100.00
31761;BME280;18335;51.486;7.562;2023-02-18T06:12:34;100368.00;;;10.08;100.00
31761;BME280;18335;51.486;7.562;2023-02-18T06:15:00;100354.50;;;10.07;100.00
31761;BME280;18335;51.486;7.562;2023-02-18T06:17:27;100353.50;;;10.08;100.00
31761;BME280;18335;51.486;7.562;2023-02-18T06:19:54;100357.22;;;10.07;100.00
31761;BME280;18335;51.486;7.562;2023-02-18T06:22:21;100348.22;;;10.06;100.00
31761;BME280;18335;51.486;7.562;2023-02-18T06:24:47;100340.03;;;10.06;100.00
31761;BME280;18335;51.486;7.562;2023-02-18T06:27:14;100339.00;;;10.07;100.00
31761;BME280;18335;51.486;7.562;2023-02-18T06:29:43;100347.69;;;10.02;100.00
31761;BME280;18335;51.486;7.562;2023-02-18T06:32:09;100346.81;;;10.02;100.00
31761;BME280;18335;51.486;7.562;2023-02-18T06:34:36;100343.59;;;10.07;100.00
31761;BME280;18335;51.486;7.562;2023-02-18T06:37:03;100343.78;;;10.05;100.00
31761;BME280;18335;51.486;7.562;2023-02-18T06:39:30;100348.22;;;10.06;100.00
31761;BME280;18335;51.486;7.562;2023-02-18T06:41:56;100344.09;;;10.02;100.00
31761;BME280;18335;51.486;7.562;2023-02-18T06:44:24;100341.47;;;9.92;100.00
31761;BME280;18335;51.486;7.562;2023-02-18T06:46:52;100351.72;;;9.98;100.00
31761;BME280;18335;51.486;7.562;2023-02-18T06:49:19;100345.63;;;10.05;100.00
31761;BME280;18335;51.486;7.562;2023-02-18T06:51:46;100352.53;;;9.91;100.00
31761;BME280;18335;51.486;7.562;2023-02-18T06:54:13;100356.31;;;9.98;100.00
31761;BME280;18335;51.486;7.562;2023-02-18T06:56:39;100360.91;;;9.97;100.00
31761;BME280;18335;51.486;7.562;2023-02-18T06:59:06;100354.34;;;10.08;100.00
31761;BME280;18335;51.486;7.562;2023-02-18T07:01:33;100342.53;;;9.99;100.00
31761;BME280;18335;51.486;7.562;2023-02-18T07:04:02;100345.94;;;10.01;100.00
31761;BME280;18335;51.486;7.562;2023-02-18T07:06:29;100350.84;;;9.98;100.00
31761;BME280;18335;51.486;7.562;2023-02-18T07:08:55;100349.03;;;10.07;100.00
31761;BME280;18335;51.486;7.562;2023-02-18T07:11:22;100346.97;;;10.00;100.00
31761;BME280;18335;51.486;7.562;2023-02-18T07:13:49;100349.69;;;10.00;100.00
31761;BME280;18335;51.486;7.562;2023-02-18T07:16:16;100346.81;;;10.02;100.00
31761;BME280;18335;51.486;7.562;2023-02-18T07:18:42;100344.91;;;9.94;100.00
31761;BME280;18335;51.486;7.562;2023-02-18T07:21:11;100346.13;;;10.00;100.00
31761;BME280;18335;51.486;7.562;2023-02-18T07:23:37;100334.31;;;9.91;100.00
31761;BME280;18335;51.486;7.562;2023-02-18T07:26:07;100339.75;;;9.91;100.00
31761;BME280;18335;51.486;7.562;2023-02-18T07:28:34;100348.56;;;9.85;100.00
31761;BME280;18335;51.486;7.562;2023-02-18T07:31:01;100358.84;;;9.91;100.00
31761;BME280;18335;51.486;7.562;2023-02-18T07:33:28;100356.03;;;9.83;100.00
31761;BME280;18335;51.486;7.562;2023-02-18T07:35:56;100364.44;;;9.90;100.00
31761;BME280;18335;51.486;7.562;2023-02-18T07:38:25;100368.72;;;9.92;100.00
31761;BME280;18335;51.486;7.562;2023-02-18T07:40:52;100363.03;;;9.86;100.00
31761;BME280;18335;51.486;7.562;2023-02-18T07:43:20;100365.22;;;10.00;100.00
31761;BME280;18335;51.486;7.562;2023-02-18T07:45:47;100376.56;;;9.95;100.00
31761;BME280;18335;51.486;7.562;2023-02-18T07:48:14;100359.84;;;9.90;100.00
31761;BME280;18335;51.486;7.562;2023-02-18T07:50:42;100362.09;;;9.95;100.00
31761;BME280;18335;51.486;7.562;2023-02-18T07:53:11;100375.72;;;9.95;100.00
31761;BME280;18335;51.486;7.562;2023-02-18T07:55:39;100381.78;;;9.89;100.00
31761;BME280;18335;51.486;7.562;2023-02-18T07:58:15;100365.63;;;9.87;100.00
31761;BME280;18335;51.486;7.562;2023-02-18T08:00:42;100369.75;;;9.91;100.00
31761;BME280;18335;51.486;7.562;2023-02-18T08:03:09;100387.41;;;9.87;100.00
31761;BME280;18335;51.486;7.562;2023-02-18T08:05:36;100388.41;;;9.86;100.00
31761;BME280;18335;51.486;7.562;2023-02-18T08:08:03;100393.50;;;9.81;100.00
31761;BME280;18335;51.486;7.562;2023-02-18T08:10:30;100387.72;;;9.84;100.00
31761;BME280;18335;51.486;7.562;2023-02-18T08:12:58;100388.66;;;9.93;100.00
31761;BME280;18335;51.486;7.562;2023-02-18T08:15:25;100407.41;;;9.96;100.00
31761;BME280;18335;51.486;7.562;2023-02-18T08:17:53;100397.06;;;9.99;100.00
31761;BME280;18335;51.486;7.562;2023-02-18T08:20:20;100403.81;;;9.95;100.00
31761;BME280;18335;51.486;7.562;2023-02-18T08:22:48;100391.91;;;9.96;100.00
31761;BME280;18335;51.486;7.562;2023-02-18T08:25:15;100405.94;;;10.01;100.00
31761;BME280;18335;51.486;7.562;2023-02-18T08:27:42;100385.78;;;9.94;100.00
31761;BME280;18335;51.486;7.562;2023-02-18T08:30:11;100400.41;;;9.93;100.00
31761;BME280;18335;51.486;7.562;2023-02-18T08:32:37;100405.69;;;9.95;100.00
31761;BME280;18335;51.486;7.562;2023-02-18T08:35:05;100395.34;;;9.98;100.00
31761;BME280;18335;51.486;7.562;2023-02-18T08:37:33;100382.72;;;9.97;100.00
31761;BME280;18335;51.486;7.562;2023-02-18T08:40:00;100404.44;;;10.07;100.00
31761;BME280;18335;51.486;7.562;2023-02-18T08:42:28;100410.44;;;10.11;100.00
31761;BME280;18335;51.486;7.562;2023-02-18T08:44:54;100397.66;;;10.11;100.00
31761;BME280;18335;51.486;7.562;2023-02-18T08:47:23;100404.13;;;10.10;100.00
31761;BME280;18335;51.486;7.562;2023-02-18T08:49:51;100398.84;;;10.09;100.00
31761;BME280;18335;51.486;7.562;2023-02-18T08:52:18;100388.88;;;10.17;100.00
31761;BME280;18335;51.486;7.562;2023-02-18T08:54:45;100392.03;;;10.13;100.00
31761;BME280;18335;51.486;7.562;2023-02-18T08:57:11;100377.66;;;10.20;100.00
31761;BME280;18335;51.486;7.562;2023-02-18T08:59:38;100385.50;;;10.23;100.00
31761;BME280;18335;51.486;7.562;2023-02-18T09:02:05;100387.69;;;10.20;100.00
31761;BME280;18335;51.486;7.562;2023-02-18T09:04:33;100379.16;;;10.15;100.00
31761;BME280;18335;51.486;7.562;2023-02-18T09:07:00;100389.19;;;10.14;100.00
31761;BME280;18335;51.486;7.562;2023-02-18T09:09:28;100371.44;;;9.92;100.00
31761;BME280;18335;51.486;7.562;2023-02-18T09:11:54;100375.50;;;9.88;100.00
31761;BME280;18335;51.486;7.562;2023-02-18T09:14:21;100370.53;;;9.84;100.00
31761;BME280;18335;51.486;7.562;2023-02-18T09:16:48;100381.09;;;9.87;100.00
31761;BME280;18335;51.486;7.562;2023-02-18T09:19:15;100363.81;;;9.96;100.00
31761;BME280;18335;51.486;7.562;2023-02-18T09:21:44;100377.78;;;9.75;100.00
31761;BME280;18335;51.486;7.562;2023-02-18T09:24:11;100380.56;;;9.83;100.00
31761;BME280;18335;51.486;7.562;2023-02-18T09:26:38;100377.47;;;9.78;100.00
31761;BME280;18335;51.486;7.562;2023-02-18T09:29:05;100375.91;;;9.76;100.00
31761;BME280;18335;51.486;7.562;2023-02-18T09:31:32;100388.03;;;9.81;100.00
31761;BME280;18335;51.486;7.562;2023-02-18T09:34:00;100396.34;;;9.80;100.00
31761;BME280;18335;51.486;7.562;2023-02-18T09:36:28;100390.47;;;9.67;100.00
31761;BME280;18335;51.486;7.562;2023-02-18T09:38:57;100388.91;;;9.64;100.00
31761;BME280;18335;51.486;7.562;2023-02-18T09:41:35;100386.09;;;9.74;100.00
31761;BME280;18335;51.486;7.562;2023-02-18T09:44:05;100386.66;;;9.60;100.00
31761;BME280;18335;51.486;7.562;2023-02-18T09:46:38;100383.28;;;9.66;100.00
31761;BME280;18335;51.486;7.562;2023-02-18T09:49:13;100393.75;;;9.70;100.00
31761;BME280;18335;51.486;7.562;2023-02-18T09:51:41;100375.81;;;9.68;100.00
31761;BME280;18335;51.486;7.562;2023-02-18T09:54:11;100372.41;;;9.66;100.00
31761;BME280;18335;51.486;7.562;2023-02-18T09:56:40;100371.16;;;9.78;100.00
31761;BME280;18335;51.486;7.562;2023-02-18T09:59:12;100369.91;;;9.72;100.00
31761;BME280;18335;51.486;7.562;2023-02-18T10:01:42;100370.53;;;9.66;100.00
31761;BME280;18335;51.486;7.562;2023-02-18T10:04:14;100372.94;;;9.69;100.00
31761;BME280;18335;51.486;7.562;2023-02-18T10:06:43;100378.72;;;9.66;100.00
31761;BME280;18335;51.486;7.562;2023-02-18T10:09:18;100382.91;;;9.78;100.00
31761;BME280;18335;51.486;7.562;2023-02-18T10:11:49;100385.56;;;9.70;100.00
31761;BME280;18335;51.486;7.562;2023-02-18T10:14:17;100380.44;;;9.67;100.00
31761;BME280;18335;51.486;7.562;2023-02-18T10:16:46;100380.66;;;9.56;100.00
31761;BME280;18335;51.486;7.562;2023-02-18T10:19:21;100391.41;;;9.58;100.00
31761;BME280;18335;51.486;7.562;2023-02-18T10:21:49;100375.59;;;9.61;100.00
31761;BME280;18335;51.486;7.562;2023-02-18T10:24:26;100372.47;;;9.56;100.00
31761;BME280;18335;51.486;7.562;2023-02-18T10:26:54;100388.75;;;9.66;100.00
31761;BME280;18335;51.486;7.562;2023-02-18T10:29:22;100362.13;;;9.60;100.00
31761;BME280;18335;51.486;7.562;2023-02-18T10:31:53;100379.34;;;9.60;100.00
31761;BME280;18335;51.486;7.562;2023-02-18T10:34:26;100386.88;;;9.49;100.00
31761;BME280;18335;51.486;7.562;2023-02-18T10:36:59;100398.09;;;9.45;100.00
31761;BME280;18335;51.486;7.562;2023-02-18T10:39:38;100388.63;;;9.50;100.00
31761;BME280;18335;51.486;7.562;2023-02-18T10:42:17;100380.50;;;9.40;100.00
31761;BME280;18335;51.486;7.562;2023-02-18T10:44:53;100393.31;;;9.30;100.00
31761;BME280;18335;51.486;7.562;2023-02-18T10:47:36;100388.38;;;9.43;100.00
31761;BME280;18335;51.486;7.562;2023-02-18T10:50:09;100391.47;;;9.48;100.00
31761;BME280;18335;51.486;7.562;2023-02-18T10:52:40;100386.03;;;9.48;100.00
31761;BME280;18335;51.486;7.562;2023-02-18T10:55:11;100386.66;;;9.42;100.00
31761;BME280;18335;51.486;7.562;2023-02-18T10:57:48;100400.63;;;9.47;100.00
31761;BME280;18335;51.486;7.562;2023-02-18T11:00:17;100400.25;;;9.42;100.00
31761;BME280;18335;51.486;7.562;2023-02-18T11:03:02;100404.34;;;9.56;100.00
31761;BME280;18335;51.486;7.562;2023-02-18T11:05:34;100389.63;;;9.49;100.00
31761;BME280;18335;51.486;7.562;2023-02-18T11:08:06;100399.94;;;9.45;100.00
31761;BME280;18335;51.486;7.562;2023-02-18T11:10:38;100406.72;;;9.41;100.00
31761;BME280;18335;51.486;7.562;2023-02-18T11:13:07;100404.53;;;9.44;100.00
31761;BME280;18335;51.486;7.562;2023-02-18T11:15:35;100401.88;;;9.35;100.00
31761;BME280;18335;51.486;7.562;2023-02-18T11:18:12;100403.69;;;9.44;100.00
31761;BME280;18335;51.486;7.562;2023-02-18T11:20:40;100407.88;;;9.38;100.00
31761;BME280;18335;51.486;7.562;2023-02-18T11:23:19;100412.00;;;9.42;100.00
31761;BME280;18335;51.486;7.562;2023-02-18T11:25:59;100412.56;;;9.46;100.00
31761;BME280;18335;51.486;7.562;2023-02-18T11:28:45;100396.34;;;9.27;100.00
31761;BME280;18335;51.486;7.562;2023-02-18T11:31:19;100402.75;;;9.35;100.00
31761;BME280;18335;51.486;7.562;2023-02-18T11:33:49;100401.97;;;9.25;100.00
31761;BME280;18335;51.486;7.562;2023-02-18T11:36:27;100398.63;;;9.31;100.00
31761;BME280;18335;51.486;7.562;2023-02-18T11:38:56;100407.09;;;9.28;100.00
31761;BME280;18335;51.486;7.562;2023-02-18T11:41:32;100397.28;;;9.35;100.00
31761;BME280;18335;51.486;7.562;2023-02-18T11:44:00;100395.13;;;9.39;100.00
31761;BME280;18335;51.486;7.562;2023-02-18T11:46:28;100394.69;;;9.61;100.00
31761;BME280;18335;51.486;7.562;2023-02-18T11:48:55;100397.72;;;9.58;100.00
31761;BME280;18335;51.486;7.562;2023-02-18T11:51:24;100389.22;;;9.61;100.00
31761;BME280;18335;51.486;7.562;2023-02-18T11:53:55;100391.53;;;9.56;100.00
31761;BME280;18335;51.486;7.562;2023-02-18T11:56:24;100381.44;;;9.66;100.00
31761;BME280;18335;51.486;7.562;2023-02-18T11:58:53;100394.75;;;9.69;100.00
31761;BME280;18335;51.486;7.562;2023-02-18T12:01:27;100400.97;;;9.79;100.00
31761;BME280;18335;51.486;7.562;2023-02-18T12:04:00;100399.41;;;9.77;100.00
31761;BME280;18335;51.486;7.562;2023-02-18T12:06:34;100395.00;;;9.58;100.00
31761;BME280;18335;51.486;7.562;2023-02-18T12:09:05;100392.72;;;9.71;100.00
31761;BME280;18335;51.486;7.562;2023-02-18T12:11:39;100401.66;;;9.81;100.00
31761;BME280;18335;51.486;7.562;2023-02-18T12:14:15;100391.31;;;9.85;100.00
31761;BME280;18335;51.486;7.562;2023-02-18T12:19:48;100390.59;;;9.83;100.00
31761;BME280;18335;51.486;7.562;2023-02-18T12:22:22;100388.28;;;9.88;100.00
31761;BME280;18335;51.486;7.562;2023-02-18T12:25:05;100368.97;;;9.81;100.00
31761;BME280;18335;51.486;7.562;2023-02-18T12:27:40;100396.22;;;9.81;100.00
31761;BME280;18335;51.486;7.562;2023-02-18T12:30:27;100399.88;;;9.72;100.00
31761;BME280;18335;51.486;7.562;2023-02-18T12:33:02;100390.41;;;9.76;100.00
31761;BME280;18335;51.486;7.562;2023-02-18T12:35:40;100397.31;;;9.71;100.00
31761;BME280;18335;51.486;7.562;2023-02-18T12:38:27;100398.47;;;9.68;100.00
31761;BME280;18335;51.486;7.562;2023-02-18T12:41:16;100408.06;;;9.55;100.00
31761;BME280;18335;51.486;7.562;2023-02-18T12:43:54;100401.06;;;9.52;100.00
31761;BME280;18335;51.486;7.562;2023-02-18T12:46:38;100398.72;;;9.57;100.00
31761;BME280;18335;51.486;7.562;2023-02-18T12:49:36;100400.88;;;9.36;100.00
31761;BME280;18335;51.486;7.562;2023-02-18T12:52:15;100401.81;;;9.44;100.00
31761;BME280;18335;51.486;7.562;2023-02-18T12:57:54;100407.94;;;9.29;100.00
31761;BME280;18335;51.486;7.562;2023-02-18T13:00:52;100415.69;;;9.51;100.00
31761;BME280;18335;51.486;7.562;2023-02-18T13:03:42;100419.06;;;9.35;100.00
31761;BME280;18335;51.486;7.562;2023-02-18T13:06:24;100415.59;;;9.43;100.00